sensor_id;sensor_type;location;lat;lon;timestamp;temperature;humidity
5647;DHT22;2845;48.626;9.362;2024-01-15T00:02:14;-2.20;97.50
5647;DHT22;2845;48.626;9.362;2024-01-15T00:04:49;-2.10;97.30
5647;DHT22;2845;48.626;9.362;2024-01-15T00:07:23;-2.10;97.20
5647;DHT22;2845;48.626;9.362;2024-01-15T00:09:57;-2.00;97.10
5647;DHT22;2845;48.626;9.362;2024-01-15T00:12:32;-1.90;97.00
5647;DHT22;2845;48.626;9.362;2024-01-15T00:15:07;-1.90;96.90
5647;DHT22;2845;48.626;9.362;2024-01-15T00:17:42;-1.90;96.80
5647;DHT22;2845;48.626;9.362;2024-01-15T00:20:17;-1.80;96.80
5647;DHT22;2845;48.626;9.362;2024-01-15T00:22:51;-1.80;96.70
5647;DHT22;2845;48.626;9.362;2024-01-15T00:25:25;-1.70;96.70
5647;DHT22;2845;48.626;9.362;2024-01-15T00:28:01;-1.70;96.70
5647;DHT22;2845;48.626;9.362;2024-01-15T00:30:35;-1.60;96.50
5647;DHT22;2845;48.626;9.362;2024-01-15T00:33:09;-1.60;96.40
5647;DHT22;2845;48.626;9.362;2024-01-15T00:35:45;-1.50;96.30
5647;DHT22;2845;48.626;9.362;2024-01-15T00:38:19;-1.50;96.30
5647;DHT22;2845;48.626;9.362;2024-01-15T00:40:54;-1.50;96.20
5647;DHT22;2845;48.626;9.362;2024-01-15T00:43:29;-1.40;96.10
5647;DHT22;2845;48.626;9.362;2024-01-15T00:46:04;-1.40;96.10
5647;DHT22;2845;48.626;9.362;2024-01-15T00:48:38;-1.40;96.00
5647;DHT22;2845;48.626;9.362;2024-01-15T00:51:12;-1.40;96.00
5647;DHT22;2845;48.626;9.362;2024-01-15T00:53:46;-1.40;95.90
5647;DHT22;2845;48.626;9.362;2024-01-15T00:56:20;-1.30;96.00
5647;DHT22;2845;48.626;9.362;2024-01-15T00:58:56;-1.30;96.00
5647;DHT22;2845;48.626;9.362;2024-01-15T01:01:30;-1.30;95.90
5647;DHT22;2845;48.626;9.362;2024-01-15T01:04:04;-1.20;95.90
5647;DHT22;2845;48.626;9.362;2024-01-15T01:06:38;-1.20;95.80
5647;DHT22;2845;48.626;9.362;2024-01-15T01:09:12;-1.20;95.70
5647;DHT22;2845;48.626;9.362;2024-01-15T01:11:47;-1.20;95.70
5647;DHT22;2845;48.626;9.362;2024-01-15T01:14:22;-1.20;95.70
5647;DHT22;2845;48.626;9.362;2024-01-15T01:16:56;-1.20;95.70
5647;DHT22;2845;48.626;9.362;2024-01-15T01:19:30;-1.10;95.70
5647;DHT22;2845;48.626;9.362;2024-01-15T01:22:05;-1.10;95.70
5647;DHT22;2845;48.626;9.362;2024-01-15T01:24:39;-1.10;95.70
5647;DHT22;2845;48.626;9.362;2024-01-15T01:27:13;-2.80;95.30
5647;DHT22;2845;48.626;9.362;2024-01-15T01:29:48;-1.20;95.70
5647;DHT22;2845;48.626;9.362;2024-01-15T01:32:22;-1.10;95.70
5647;DHT22;2845;48.626;9.362;2024-01-15T01:34:57;-1.10;95.70
5647;DHT22;2845;48.626;9.362;2024-01-15T01:37:31;-1.00;95.70
5647;DHT22;2845;48.626;9.362;2024-01-15T01:40:08;-1.00;95.60
5647;DHT22;2845;48.626;9.362;2024-01-15T01:42:43;-1.00;95.60
5647;DHT22;2845;48.626;9.362;2024-01-15T01:45:18;-1.00;95.60
5647;DHT22;2845;48.626;9.362;2024-01-15T01:47:52;-1.00;95.70
5647;DHT22;2845;48.626;9.362;2024-01-15T01:50:28;-1.00;95.70
5647;DHT22;2845;48.626;9.362;2024-01-15T01:53:02;-0.90;95.70
5647;DHT22;2845;48.626;9.362;2024-01-15T01:55:38;-0.90;95.60
5647;DHT22;2845;48.626;9.362;2024-01-15T01:58:12;-0.90;95.50
5647;DHT22;2845;48.626;9.362;2024-01-15T02:00:48;-0.90;95.50
5647;DHT22;2845;48.626;9.362;2024-01-15T02:03:23;-0.80;95.50
5647;DHT22;2845;48.626;9.362;2024-01-15T02:05:57;-0.80;95.50
5647;DHT22;2845;48.626;9.362;2024-01-15T02:08:32;-0.80;95.60
5647;DHT22;2845;48.626;9.362;2024-01-15T02:11:07;-0.80;95.50
5647;DHT22;2845;48.626;9.362;2024-01-15T02:13:41;-0.80;95.50
5647;DHT22;2845;48.626;9.362;2024-01-15T02:16:17;-0.80;95.50
5647;DHT22;2845;48.626;9.362;2024-01-15T02:18:51;-0.80;95.50
5647;DHT22;2845;48.626;9.362;2024-01-15T02:21:25;-0.80;95.50
5647;DHT22;2845;48.626;9.362;2024-01-15T02:24:03;-0.70;95.50
5647;DHT22;2845;48.626;9.362;2024-01-15T02:26:37;-0.80;95.50
5647;DHT22;2845;48.626;9.362;2024-01-15T02:29:12;-0.80;95.50
5647;DHT22;2845;48.626;9.362;2024-01-15T02:31:47;-0.80;95.50
5647;DHT22;2845;48.626;9.362;2024-01-15T02:34:22;-0.30;95.60
5647;DHT22;2845;48.626;9.362;2024-01-15T02:36:56;-0.80;95.60
5647;DHT22;2845;48.626;9.362;2024-01-15T02:39:31;-0.80;95.60
5647;DHT22;2845;48.626;9.362;2024-01-15T02:42:06;-0.80;95.50
5647;DHT22;2845;48.626;9.362;2024-01-15T02:44:40;-0.70;95.60
5647;DHT22;2845;48.626;9.362;2024-01-15T02:47:14;-0.80;95.50
5647;DHT22;2845;48.626;9.362;2024-01-15T02:49:48;-0.70;95.70
5647;DHT22;2845;48.626;9.362;2024-01-15T02:52:22;-0.70;95.60
5647;DHT22;2845;48.626;9.362;2024-01-15T02:54:58;-0.70;95.50
5647;DHT22;2845;48.626;9.362;2024-01-15T02:57:32;-0.70;95.60
5647;DHT22;2845;48.626;9.362;2024-01-15T03:00:07;-0.70;95.60
5647;DHT22;2845;48.626;9.362;2024-01-15T03:02:45;-0.70;95.60
5647;DHT22;2845;48.626;9.362;2024-01-15T03:05:20;-0.70;95.60
5647;DHT22;2845;48.626;9.362;2024-01-15T03:07:55;-0.70;95.60
5647;DHT22;2845;48.626;9.362;2024-01-15T03:10:30;-0.70;95.60
5647;DHT22;2845;48.626;9.362;2024-01-15T03:13:04;-0.70;95.60
5647;DHT22;2845;48.626;9.362;2024-01-15T03:15:39;-0.70;95.60
5647;DHT22;2845;48.626;9.362;2024-01-15T03:18:13;-0.70;95.60
5647;DHT22;2845;48.626;9.362;2024-01-15T03:20:47;-0.70;95.70
5647;DHT22;2845;48.626;9.362;2024-01-15T03:23:21;-0.80;95.70
5647;DHT22;2845;48.626;9.362;2024-01-15T03:25:57;1.40;96.20
5647;DHT22;2845;48.626;9.362;2024-01-15T03:28:31;-0.80;95.80
5647;DHT22;2845;48.626;9.362;2024-01-15T03:31:05;-0.80;95.70
5647;DHT22;2845;48.626;9.362;2024-01-15T03:33:39;-0.80;95.80
5647;DHT22;2845;48.626;9.362;2024-01-15T03:36:13;-0.90;95.80
5647;DHT22;2845;48.626;9.362;2024-01-15T03:38:48;-0.90;95.90
5647;DHT22;2845;48.626;9.362;2024-01-15T03:41:23;-0.90;95.80
5647;DHT22;2845;48.626;9.362;2024-01-15T03:43:57;-0.90;96.00
5647;DHT22;2845;48.626;9.362;2024-01-15T03:46:32;-0.90;96.00
5647;DHT22;2845;48.626;9.362;2024-01-15T03:49:06;-0.90;96.00
5647;DHT22;2845;48.626;9.362;2024-01-15T03:51:40;-0.90;96.00
5647;DHT22;2845;48.626;9.362;2024-01-15T03:54:14;-0.90;96.00
5647;DHT22;2845;48.626;9.362;2024-01-15T03:56:53;-0.90;96.10
5647;DHT22;2845;48.626;9.362;2024-01-15T03:59:27;-0.90;95.90
5647;DHT22;2845;48.626;9.362;2024-01-15T04:02:01;-0.80;96.00
5647;DHT22;2845;48.626;9.362;2024-01-15T04:04:36;-0.90;96.00
5647;DHT22;2845;48.626;9.362;2024-01-15T04:07:14;-0.80;96.00
5647;DHT22;2845;48.626;9.362;2024-01-15T04:09:48;-0.80;96.00
5647;DHT22;2845;48.626;9.362;2024-01-15T04:12:24;-0.70;95.90
5647;DHT22;2845;48.626;9.362;2024-01-15T04:14:58;-0.70;95.90
5647;DHT22;2845;48.626;9.362;2024-01-15T04:17:32;-0.70;95.90
5647;DHT22;2845;48.626;9.362;2024-01-15T04:20:07;-0.70;95.90
5647;DHT22;2845;48.626;9.362;2024-01-15T04:22:42;-0.60;95.90
5647;DHT22;2845;48.626;9.362;2024-01-15T04:25:17;-0.60;95.90
5647;DHT22;2845;48.626;9.362;2024-01-15T04:27:53;-0.60;95.90
5647;DHT22;2845;48.626;9.362;2024-01-15T04:30:27;-0.60;95.90
5647;DHT22;2845;48.626;9.362;2024-01-15T04:33:01;-0.50;95.90
5647;DHT22;2845;48.626;9.362;2024-01-15T04:35:36;-0.50;95.90
5647;DHT22;2845;48.626;9.362;2024-01-15T04:38:11;-0.50;95.80
5647;DHT22;2845;48.626;9.362;2024-01-15T04:40:45;-0.40;95.80
5647;DHT22;2845;48.626;9.362;2024-01-15T04:43:21;-0.40;95.80
5647;DHT22;2845;48.626;9.362;2024-01-15T04:45:55;-0.30;95.80
5647;DHT22;2845;48.626;9.362;2024-01-15T04:48:30;-0.30;95.80
5647;DHT22;2845;48.626;9.362;2024-01-15T04:51:05;-0.30;95.70
5647;DHT22;2845;48.626;9.362;2024-01-15T04:53:39;-0.30;95.70
5647;DHT22;2845;48.626;9.362;2024-01-15T04:56:13;-0.30;95.70
5647;DHT22;2845;48.626;9.362;2024-01-15T04:58:48;-0.30;95.70
5647;DHT22;2845;48.626;9.362;2024-01-15T05:01:23;-0.30;95.80
5647;DHT22;2845;48.626;9.362;2024-01-15T05:03:57;-0.30;95.80
5647;DHT22;2845;48.626;9.362;2024-01-15T05:06:32;-0.40;95.80
5647;DHT22;2845;48.626;9.362;2024-01-15T05:09:06;-0.40;95.90
5647;DHT22;2845;48.626;9.362;2024-01-15T05:11:40;-0.30;96.00
5647;DHT22;2845;48.626;9.362;2024-01-15T05:14:16;-0.30;95.90
5647;DHT22;2845;48.626;9.362;2024-01-15T05:16:50;-0.30;95.90
5647;DHT22;2845;48.626;9.362;2024-01-15T05:19:24;-0.30;95.90
5647;DHT22;2845;48.626;9.362;2024-01-15T05:21:58;-0.20;95.90
5647;DHT22;2845;48.626;9.362;2024-01-15T05:24:32;-0.20;95.90
5647;DHT22;2845;48.626;9.362;2024-01-15T05:27:06;-0.20;95.90
5647;DHT22;2845;48.626;9.362;2024-01-15T05:29:42;-0.20;95.90
5647;DHT22;2845;48.626;9.362;2024-01-15T05:32:16;-0.20;95.90
5647;DHT22;2845;48.626;9.362;2024-01-15T05:34:50;-0.20;96.00
5647;DHT22;2845;48.626;9.362;2024-01-15T05:37:24;-0.20;96.00
5647;DHT22;2845;48.626;9.362;2024-01-15T05:39:58;-0.90;95.90
5647;DHT22;2845;48.626;9.362;2024-01-15T05:42:33;-0.30;96.00
5647;DHT22;2845;48.626;9.362;2024-01-15T05:45:09;-0.20;96.10
5647;DHT22;2845;48.626;9.362;2024-01-15T05:47:43;-0.20;96.10
5647;DHT22;2845;48.626;9.362;2024-01-15T05:50:18;-0.20;96.10
5647;DHT22;2845;48.626;9.362;2024-01-15T05:52:52;-0.20;96.10
5647;DHT22;2845;48.626;9.362;2024-01-15T05:55:26;-0.30;96.00
5647;DHT22;2845;48.626;9.362;2024-01-15T05:58:00;-0.30;96.10
5647;DHT22;2845;48.626;9.362;2024-01-15T06:00:35;-0.20;96.10
5647;DHT22;2845;48.626;9.362;2024-01-15T06:03:11;-0.20;96.10
5647;DHT22;2845;48.626;9.362;2024-01-15T06:05:45;-0.20;96.10
5647;DHT22;2845;48.626;9.362;2024-01-15T06:08:19;-0.20;96.10
5647;DHT22;2845;48.626;9.362;2024-01-15T06:10:53;2.40;96.70
5647;DHT22;2845;48.626;9.362;2024-01-15T06:13:33;-0.10;96.10
5647;DHT22;2845;48.626;9.362;2024-01-15T06:16:13;-0.10;96.10
5647;DHT22;2845;48.626;9.362;2024-01-15T06:18:49;-0.10;96.10
5647;DHT22;2845;48.626;9.362;2024-01-15T06:21:24;0.60;96.20
5647;DHT22;2845;48.626;9.362;2024-01-15T06:23:58;-0.10;96.10
5647;DHT22;2845;48.626;9.362;2024-01-15T06:26:32;-0.20;96.10
5647;DHT22;2845;48.626;9.362;2024-01-15T06:29:06;-0.20;96.10
5647;DHT22;2845;48.626;9.362;2024-01-15T06:31:42;-0.10;96.20
5647;DHT22;2845;48.626;9.362;2024-01-15T06:34:16;-0.10;96.00
5647;DHT22;2845;48.626;9.362;2024-01-15T06:36:51;-0.10;96.30
5647;DHT22;2845;48.626;9.362;2024-01-15T06:39:26;-0.10;96.20
5647;DHT22;2845;48.626;9.362;2024-01-15T06:42:00;-0.10;96.20
5647;DHT22;2845;48.626;9.362;2024-01-15T06:44:34;-0.10;96.00
5647;DHT22;2845;48.626;9.362;2024-01-15T06:47:10;-0.10;96.20
5647;DHT22;2845;48.626;9.362;2024-01-15T06:49:44;-0.10;96.10
5647;DHT22;2845;48.626;9.362;2024-01-15T06:52:18;-0.10;96.10
5647;DHT22;2845;48.626;9.362;2024-01-15T06:54:52;-0.10;96.10
5647;DHT22;2845;48.626;9.362;2024-01-15T06:57:26;-0.10;96.10
5647;DHT22;2845;48.626;9.362;2024-01-15T07:00:00;-0.10;96.10
5647;DHT22;2845;48.626;9.362;2024-01-15T07:02:39;-0.10;96.10
5647;DHT22;2845;48.626;9.362;2024-01-15T07:05:13;-0.10;96.00
5647;DHT22;2845;48.626;9.362;2024-01-15T07:07:47;-0.10;96.00
5647;DHT22;2845;48.626;9.362;2024-01-15T07:10:22;0.00;95.90
5647;DHT22;2845;48.626;9.362;2024-01-15T07:12:56;-0.10;95.90
5647;DHT22;2845;48.626;9.362;2024-01-15T07:15:30;-0.10;95.90
5647;DHT22;2845;48.626;9.362;2024-01-15T07:18:06;-0.10;95.90
5647;DHT22;2845;48.626;9.362;2024-01-15T07:20:40;0.00;95.90
5647;DHT22;2845;48.626;9.362;2024-01-15T07:23:14;-0.10;95.90
5647;DHT22;2845;48.626;9.362;2024-01-15T07:25:48;0.00;95.80
5647;DHT22;2845;48.626;9.362;2024-01-15T07:28:22;0.00;95.70
5647;DHT22;2845;48.626;9.362;2024-01-15T07:30:56;0.00;95.70
5647;DHT22;2845;48.626;9.362;2024-01-15T07:33:32;0.10;95.60
5647;DHT22;2845;48.626;9.362;2024-01-15T07:36:07;0.10;95.60
5647;DHT22;2845;48.626;9.362;2024-01-15T07:38:41;0.10;95.50
5647;DHT22;2845;48.626;9.362;2024-01-15T07:41:15;0.10;95.50
5647;DHT22;2845;48.626;9.362;2024-01-15T07:43:49;0.20;95.50
5647;DHT22;2845;48.626;9.362;2024-01-15T07:46:23;0.20;95.40
5647;DHT22;2845;48.626;9.362;2024-01-15T07:48:59;0.10;95.30
5647;DHT22;2845;48.626;9.362;2024-01-15T07:51:33;0.20;95.40
5647;DHT22;2845;48.626;9.362;2024-01-15T07:54:07;0.20;95.30
5647;DHT22;2845;48.626;9.362;2024-01-15T07:56:54;0.20;95.30
5647;DHT22;2845;48.626;9.362;2024-01-15T07:59:29;0.30;95.20
5647;DHT22;2845;48.626;9.362;2024-01-15T08:02:04;0.30;95.20
5647;DHT22;2845;48.626;9.362;2024-01-15T08:04:39;0.30;95.20
5647;DHT22;2845;48.626;9.362;2024-01-15T08:07:13;0.30;95.10
5647;DHT22;2845;48.626;9.362;2024-01-15T08:09:48;0.30;95.10
5647;DHT22;2845;48.626;9.362;2024-01-15T08:12:22;0.30;95.10
5647;DHT22;2845;48.626;9.362;2024-01-15T08:14:56;0.40;95.00
5647;DHT22;2845;48.626;9.362;2024-01-15T08:17:30;0.40;95.00
5647;DHT22;2845;48.626;9.362;2024-01-15T08:20:07;0.40;94.90
5647;DHT22;2845;48.626;9.362;2024-01-15T08:22:43;0.50;94.90
5647;DHT22;2845;48.626;9.362;2024-01-15T08:25:17;0.50;94.80
5647;DHT22;2845;48.626;9.362;2024-01-15T08:27:51;0.50;94.90
5647;DHT22;2845;48.626;9.362;2024-01-15T08:30:25;0.50;94.80
5647;DHT22;2845;48.626;9.362;2024-01-15T08:33:00;0.50;94.70
5647;DHT22;2845;48.626;9.362;2024-01-15T08:35:44;0.50;94.60
5647;DHT22;2845;48.626;9.362;2024-01-15T08:38:18;0.60;94.70
5647;DHT22;2845;48.626;9.362;2024-01-15T08:43:29;0.60;94.50
5647;DHT22;2845;48.626;9.362;2024-01-15T08:46:03;0.70;94.50
5647;DHT22;2845;48.626;9.362;2024-01-15T08:48:38;0.70;94.40
5647;DHT22;2845;48.626;9.362;2024-01-15T08:51:14;0.80;94.30
5647;DHT22;2845;48.626;9.362;2024-01-15T08:53:48;0.80;94.20
5647;DHT22;2845;48.626;9.362;2024-01-15T08:56:22;0.90;94.20
5647;DHT22;2845;48.626;9.362;2024-01-15T08:58:56;0.90;94.00
5647;DHT22;2845;48.626;9.362;2024-01-15T09:01:30;1.00;94.00
5647;DHT22;2845;48.626;9.362;2024-01-15T09:04:04;1.00;94.00
5647;DHT22;2845;48.626;9.362;2024-01-15T09:06:40;1.10;93.70
5647;DHT22;2845;48.626;9.362;2024-01-15T09:09:14;1.10;93.80
5647;DHT22;2845;48.626;9.362;2024-01-15T09:11:48;1.10;93.60
5647;DHT22;2845;48.626;9.362;2024-01-15T09:14:22;1.20;93.60
5647;DHT22;2845;48.626;9.362;2024-01-15T09:17:08;1.20;93.40
5647;DHT22;2845;48.626;9.362;2024-01-15T09:19:42;-1.40;92.70
5647;DHT22;2845;48.626;9.362;2024-01-15T09:22:18;1.30;93.10
5647;DHT22;2845;48.626;9.362;2024-01-15T09:24:52;1.30;93.10
5647;DHT22;2845;48.626;9.362;2024-01-15T09:27:26;1.40;93.00
5647;DHT22;2845;48.626;9.362;2024-01-15T09:30:02;1.40;92.90
5647;DHT22;2845;48.626;9.362;2024-01-15T09:32:36;1.60;93.00
5647;DHT22;2845;48.626;9.362;2024-01-15T09:35:10;1.40;92.90
5647;DHT22;2845;48.626;9.362;2024-01-15T09:37:46;1.40;92.80
5647;DHT22;2845;48.626;9.362;2024-01-15T09:40:21;1.50;92.60
5647;DHT22;2845;48.626;9.362;2024-01-15T09:42:55;1.50;92.60
5647;DHT22;2845;48.626;9.362;2024-01-15T09:45:30;1.60;92.70
5647;DHT22;2845;48.626;9.362;2024-01-15T09:48:05;1.60;92.50
5647;DHT22;2845;48.626;9.362;2024-01-15T09:50:39;1.60;92.60
5647;DHT22;2845;48.626;9.362;2024-01-15T09:53:15;1.70;92.50
5647;DHT22;2845;48.626;9.362;2024-01-15T09:55:50;1.70;92.50
5647;DHT22;2845;48.626;9.362;2024-01-15T09:58:24;1.80;92.40
5647;DHT22;2845;48.626;9.362;2024-01-15T10:00:59;1.80;92.30
5647;DHT22;2845;48.626;9.362;2024-01-15T10:03:39;1.80;92.20
5647;DHT22;2845;48.626;9.362;2024-01-15T10:06:15;1.90;92.40
5647;DHT22;2845;48.626;9.362;2024-01-15T10:08:57;1.90;92.20
5647;DHT22;2845;48.626;9.362;2024-01-15T10:11:32;2.80;92.30
5647;DHT22;2845;48.626;9.362;2024-01-15T10:14:06;2.00;91.80
5647;DHT22;2845;48.626;9.362;2024-01-15T10:16:42;2.10;92.00
5647;DHT22;2845;48.626;9.362;2024-01-15T10:19:17;2.70;91.90
5647;DHT22;2845;48.626;9.362;2024-01-15T10:21:51;2.20;91.90
5647;DHT22;2845;48.626;9.362;2024-01-15T10:24:27;2.20;91.90
5647;DHT22;2845;48.626;9.362;2024-01-15T10:27:05;2.20;91.70
5647;DHT22;2845;48.626;9.362;2024-01-15T10:29:41;2.40;91.80
5647;DHT22;2845;48.626;9.362;2024-01-15T10:32:16;2.20;91.60
5647;DHT22;2845;48.626;9.362;2024-01-15T10:34:52;2.20;91.70
5647;DHT22;2845;48.626;9.362;2024-01-15T10:37:26;2.20;91.80
5647;DHT22;2845;48.626;9.362;2024-01-15T10:40:03;2.20;91.60
5647;DHT22;2845;48.626;9.362;2024-01-15T10:42:38;2.20;91.70
5647;DHT22;2845;48.626;9.362;2024-01-15T10:45:14;2.20;91.80
5647;DHT22;2845;48.626;9.362;2024-01-15T10:47:48;2.20;91.70
5647;DHT22;2845;48.626;9.362;2024-01-15T10:50:22;2.30;91.60
5647;DHT22;2845;48.626;9.362;2024-01-15T10:52:57;2.30;91.50
5647;DHT22;2845;48.626;9.362;2024-01-15T10:55:33;2.30;91.50
5647;DHT22;2845;48.626;9.362;2024-01-15T10:58:09;2.30;91.50
5647;DHT22;2845;48.626;9.362;2024-01-15T11:00:44;2.30;91.50
5647;DHT22;2845;48.626;9.362;2024-01-15T11:03:18;2.30;91.60
5647;DHT22;2845;48.626;9.362;2024-01-15T11:05:53;2.30;91.40
5647;DHT22;2845;48.626;9.362;2024-01-15T11:08:28;2.30;91.50
5647;DHT22;2845;48.626;9.362;2024-01-15T11:11:04;2.30;91.50
5647;DHT22;2845;48.626;9.362;2024-01-15T11:13:41;2.40;91.30
5647;DHT22;2845;48.626;9.362;2024-01-15T11:16:16;2.20;91.20
5647;DHT22;2845;48.626;9.362;2024-01-15T11:19:02;2.40;91.40
5647;DHT22;2845;48.626;9.362;2024-01-15T11:21:42;2.40;91.50
5647;DHT22;2845;48.626;9.362;2024-01-15T11:24:34;2.40;91.60
5647;DHT22;2845;48.626;9.362;2024-01-15T11:29:45;2.30;91.50
5647;DHT22;2845;48.626;9.362;2024-01-15T11:32:33;2.20;91.70
5647;DHT22;2845;48.626;9.362;2024-01-15T11:35:08;2.20;91.80
5647;DHT22;2845;48.626;9.362;2024-01-15T11:37:59;2.20;91.80
5647;DHT22;2845;48.626;9.362;2024-01-15T11:40:38;2.20;91.90
5647;DHT22;2845;48.626;9.362;2024-01-15T11:43:18;2.30;91.90
5647;DHT22;2845;48.626;9.362;2024-01-15T11:45:54;2.40;91.70
5647;DHT22;2845;48.626;9.362;2024-01-15T11:48:37;2.40;91.80
5647;DHT22;2845;48.626;9.362;2024-01-15T11:51:18;2.40;91.70
5647;DHT22;2845;48.626;9.362;2024-01-15T11:53:55;2.40;91.80
5647;DHT22;2845;48.626;9.362;2024-01-15T11:56:31;2.30;91.80
5647;DHT22;2845;48.626;9.362;2024-01-15T11:59:06;2.40;91.80
5647;DHT22;2845;48.626;9.362;2024-01-15T12:01:41;2.40;91.90
5647;DHT22;2845;48.626;9.362;2024-01-15T12:04:16;3.60;92.10
5647;DHT22;2845;48.626;9.362;2024-01-15T12:06:52;2.50;91.90
5647;DHT22;2845;48.626;9.362;2024-01-15T12:09:26;2.50;91.90
5647;DHT22;2845;48.626;9.362;2024-01-15T12:12:06;2.40;92.10
5647;DHT22;2845;48.626;9.362;2024-01-15T12:14:44;2.70;92.70
5647;DHT22;2845;48.626;9.362;2024-01-15T12:17:19;2.20;93.00
5647;DHT22;2845;48.626;9.362;2024-01-15T12:19:53;2.20;93.20
5647;DHT22;2845;48.626;9.362;2024-01-15T12:22:28;2.20;93.40
5647;DHT22;2845;48.626;9.362;2024-01-15T12:25:16;2.20;93.60
5647;DHT22;2845;48.626;9.362;2024-01-15T12:27:51;2.20;93.50
5647;DHT22;2845;48.626;9.362;2024-01-15T12:30:27;2.20;93.50
5647;DHT22;2845;48.626;9.362;2024-01-15T12:33:02;2.30;93.50
5647;DHT22;2845;48.626;9.362;2024-01-15T12:35:38;2.20;93.50
5647;DHT22;2845;48.626;9.362;2024-01-15T12:38:12;2.30;93.60
5647;DHT22;2845;48.626;9.362;2024-01-15T12:40:46;4.60;94.10
5647;DHT22;2845;48.626;9.362;2024-01-15T12:43:20;2.20;93.70
5647;DHT22;2845;48.626;9.362;2024-01-15T12:45:56;2.20;94.00
5647;DHT22;2845;48.626;9.362;2024-01-15T12:48:31;2.20;93.90
5647;DHT22;2845;48.626;9.362;2024-01-15T12:51:06;2.20;94.00
5647;DHT22;2845;48.626;9.362;2024-01-15T12:53:40;2.20;94.20
5647;DHT22;2845;48.626;9.362;2024-01-15T12:56:14;4.50;94.50
5647;DHT22;2845;48.626;9.362;2024-01-15T12:58:48;2.20;94.00
5647;DHT22;2845;48.626;9.362;2024-01-15T13:01:24;2.20;94.10
5647;DHT22;2845;48.626;9.362;2024-01-15T13:03:58;2.10;94.30
5647;DHT22;2845;48.626;9.362;2024-01-15T13:06:33;2.10;94.40
5647;DHT22;2845;48.626;9.362;2024-01-15T13:09:07;2.10;94.70
5647;DHT22;2845;48.626;9.362;2024-01-15T13:11:43;2.00;95.00
5647;DHT22;2845;48.626;9.362;2024-01-15T13:14:17;1.90;95.30
5647;DHT22;2845;48.626;9.362;2024-01-15T13:16:53;1.90;95.30
5647;DHT22;2845;48.626;9.362;2024-01-15T13:19:27;1.90;95.40
5647;DHT22;2845;48.626;9.362;2024-01-15T13:22:01;1.90;95.50
5647;DHT22;2845;48.626;9.362;2024-01-15T13:24:36;1.90;95.60
5647;DHT22;2845;48.626;9.362;2024-01-15T13:27:10;1.80;95.60
5647;DHT22;2845;48.626;9.362;2024-01-15T13:29:44;1.80;95.70
5647;DHT22;2845;48.626;9.362;2024-01-15T13:32:23;1.80;96.00
5647;DHT22;2845;48.626;9.362;2024-01-15T13:34:59;2.50;96.40
5647;DHT22;2845;48.626;9.362;2024-01-15T13:37:34;1.70;96.30
5647;DHT22;2845;48.626;9.362;2024-01-15T13:40:10;1.70;96.40
5647;DHT22;2845;48.626;9.362;2024-01-15T13:42:50;1.70;96.50
5647;DHT22;2845;48.626;9.362;2024-01-15T13:45:25;1.60;96.60
5647;DHT22;2845;48.626;9.362;2024-01-15T13:48:01;1.60;96.80
5647;DHT22;2845;48.626;9.362;2024-01-15T13:50:38;1.60;96.80
5647;DHT22;2845;48.626;9.362;2024-01-15T13:53:12;1.50;96.90
5647;DHT22;2845;48.626;9.362;2024-01-15T13:55:46;1.50;97.10
5647;DHT22;2845;48.626;9.362;2024-01-15T13:58:21;1.50;97.20
5647;DHT22;2845;48.626;9.362;2024-01-15T14:00:55;1.50;97.50
5647;DHT22;2845;48.626;9.362;2024-01-15T14:03:31;-1.50;96.80
5647;DHT22;2845;48.626;9.362;2024-01-15T14:06:06;1.30;97.70
5647;DHT22;2845;48.626;9.362;2024-01-15T14:08:43;1.30;97.90
5647;DHT22;2845;48.626;9.362;2024-01-15T14:11:17;1.20;98.00
5647;DHT22;2845;48.626;9.362;2024-01-15T14:13:51;1.20;98.30
5647;DHT22;2845;48.626;9.362;2024-01-15T14:16:25;1.20;98.40
5647;DHT22;2845;48.626;9.362;2024-01-15T14:19:01;1.20;98.30
5647;DHT22;2845;48.626;9.362;2024-01-15T14:21:36;1.20;98.40
5647;DHT22;2845;48.626;9.362;2024-01-15T14:24:11;1.20;98.50
5647;DHT22;2845;48.626;9.362;2024-01-15T14:26:45;1.20;98.60
5647;DHT22;2845;48.626;9.362;2024-01-15T14:29:20;1.10;98.60
5647;DHT22;2845;48.626;9.362;2024-01-15T14:31:57;-1.50;98.20
5647;DHT22;2845;48.626;9.362;2024-01-15T14:34:33;1.20;98.80
5647;DHT22;2845;48.626;9.362;2024-01-15T14:37:09;1.20;98.70
5647;DHT22;2845;48.626;9.362;2024-01-15T14:39:43;1.20;98.80
5647;DHT22;2845;48.626;9.362;2024-01-15T14:42:17;1.20;98.90
5647;DHT22;2845;48.626;9.362;2024-01-15T14:44:51;1.10;99.00
5647;DHT22;2845;48.626;9.362;2024-01-15T14:47:26;1.10;99.20
5647;DHT22;2845;48.626;9.362;2024-01-15T14:50:01;1.10;99.30
5647;DHT22;2845;48.626;9.362;2024-01-15T14:52:36;1.10;99.40
5647;DHT22;2845;48.626;9.362;2024-01-15T14:55:10;1.10;99.40
5647;DHT22;2845;48.626;9.362;2024-01-15T14:57:44;1.00;99.50
5647;DHT22;2845;48.626;9.362;2024-01-15T15:00:19;1.00;99.60
5647;DHT22;2845;48.626;9.362;2024-01-15T15:02:53;1.00;99.70
5647;DHT22;2845;48.626;9.362;2024-01-15T15:05:28;1.00;99.90
5647;DHT22;2845;48.626;9.362;2024-01-15T15:08:03;1.00;99.90
5647;DHT22;2845;48.626;9.362;2024-01-15T15:10:41;1.00;99.90
5647;DHT22;2845;48.626;9.362;2024-01-15T15:13:16;1.00;99.90
5647;DHT22;2845;48.626;9.362;2024-01-15T15:16:05;0.90;99.90
5647;DHT22;2845;48.626;9.362;2024-01-15T15:18:42;0.90;99.90
5647;DHT22;2845;48.626;9.362;2024-01-15T15:21:18;0.80;99.90
5647;DHT22;2845;48.626;9.362;2024-01-15T15:23:52;3.10;99.90
5647;DHT22;2845;48.626;9.362;2024-01-15T15:26:26;0.80;99.90
5647;DHT22;2845;48.626;9.362;2024-01-15T15:29:00;0.80;99.90
5647;DHT22;2845;48.626;9.362;2024-01-15T15:31:35;0.80;99.90
5647;DHT22;2845;48.626;9.362;2024-01-15T15:34:09;0.80;99.90
5647;DHT22;2845;48.626;9.362;2024-01-15T15:36:44;0.80;99.90
5647;DHT22;2845;48.626;9.362;2024-01-15T15:39:18;0.80;99.90
5647;DHT22;2845;48.626;9.362;2024-01-15T15:41:53;0.80;99.90
5647;DHT22;2845;48.626;9.362;2024-01-15T15:44:27;2.00;99.90
5647;DHT22;2845;48.626;9.362;2024-01-15T15:47:01;0.70;99.90
5647;DHT22;2845;48.626;9.362;2024-01-15T15:49:35;0.70;99.90
5647;DHT22;2845;48.626;9.362;2024-01-15T15:52:11;3.10;99.90
5647;DHT22;2845;48.626;9.362;2024-01-15T15:54:45;0.60;99.90
5647;DHT22;2845;48.626;9.362;2024-01-15T15:57:19;0.60;99.90
5647;DHT22;2845;48.626;9.362;2024-01-15T15:59:54;0.60;99.90
5647;DHT22;2845;48.626;9.362;2024-01-15T16:02:30;0.60;99.90
5647;DHT22;2845;48.626;9.362;2024-01-15T16:05:07;0.60;99.90
5647;DHT22;2845;48.626;9.362;2024-01-15T16:07:44;0.60;99.90
5647;DHT22;2845;48.626;9.362;2024-01-15T16:10:18;0.60;99.90
5647;DHT22;2845;48.626;9.362;2024-01-15T16:12:53;0.60;99.90
5647;DHT22;2845;48.626;9.362;2024-01-15T16:15:27;0.50;99.90
5647;DHT22;2845;48.626;9.362;2024-01-15T16:18:01;0.50;99.90
5647;DHT22;2845;48.626;9.362;2024-01-15T16:20:56;1.60;99.90
5647;DHT22;2845;48.626;9.362;2024-01-15T16:23:52;0.40;99.90
5647;DHT22;2845;48.626;9.362;2024-01-15T16:26:46;0.50;99.90
5647;DHT22;2845;48.626;9.362;2024-01-15T16:29:20;0.40;99.90
5647;DHT22;2845;48.626;9.362;2024-01-15T16:31:55;0.40;99.90
5647;DHT22;2845;48.626;9.362;2024-01-15T16:37:04;0.40;99.70
5647;DHT22;2845;48.626;9.362;2024-01-15T16:42:15;0.40;99.70
5647;DHT22;2845;48.626;9.362;2024-01-15T16:44:49;0.40;99.70
5647;DHT22;2845;48.626;9.362;2024-01-15T16:47:23;0.40;99.90
5647;DHT22;2845;48.626;9.362;2024-01-15T16:49:58;0.30;99.90
5647;DHT22;2845;48.626;9.362;2024-01-15T16:52:32;0.30;99.80
5647;DHT22;2845;48.626;9.362;2024-01-15T16:57:42;0.30;99.80
5647;DHT22;2845;48.626;9.362;2024-01-15T17:00:17;0.20;99.80
5647;DHT22;2845;48.626;9.362;2024-01-15T17:02:51;0.20;99.70
5647;DHT22;2845;48.626;9.362;2024-01-15T17:08:00;0.20;99.70
5647;DHT22;2845;48.626;9.362;2024-01-15T17:10:36;0.20;99.90
5647;DHT22;2845;48.626;9.362;2024-01-15T17:13:13;0.20;99.90
5647;DHT22;2845;48.626;9.362;2024-01-15T17:15:47;0.20;99.70
5647;DHT22;2845;48.626;9.362;2024-01-15T17:18:21;0.20;99.70
5647;DHT22;2845;48.626;9.362;2024-01-15T17:20:55;0.10;99.50